createdAt,value
2022-12-03T00:01:51.133Z,3.20
2022-12-03T00:04:18.118Z,3.30
2022-12-03T00:06:45.007Z,3.30
2022-12-03T00:09:12.033Z,3.40
2022-12-03T00:11:38.868Z,3.20
2022-12-03T00:14:05.803Z,3.20
2022-12-03T00:16:32.705Z,3.30
2022-12-03T00:18:59.602Z,3.20
2022-12-03T00:21:26.457Z,3.30
2022-12-03T00:23:53.314Z,3.20
2022-12-03T00:26:20.198Z,3.30
2022-12-03T00:28:47.274Z,3.20
2022-12-03T00:31:14.177Z,3.30
2022-12-03T00:33:41.068Z,3.20
2022-12-03T00:36:08.257Z,3.30
2022-12-03T00:38:35.089Z,3.30
2022-12-03T00:41:01.912Z,3.30
2022-12-03T00:43:28.725Z,3.30
2022-12-03T00:45:55.534Z,3.30
2022-12-03T00:48:22.348Z,3.30
2022-12-03T00:50:49.156Z,3.30
2022-12-03T00:53:15.990Z,3.30
2022-12-03T00:55:42.812Z,3.30
2022-12-03T00:58:09.767Z,3.40
2022-12-03T01:00:37.490Z,3.40
2022-12-03T01:03:04.353Z,3.40
2022-12-03T01:05:31.186Z,3.30
2022-12-03T01:07:58.062Z,3.30
2022-12-03T01:10:24.978Z,3.30
2022-12-03T01:12:51.813Z,3.30
2022-12-03T01:15:18.709Z,3.30
2022-12-03T01:17:45.563Z,3.30
2022-12-03T01:20:13.638Z,3.40
2022-12-03T01:22:40.436Z,3.40
2022-12-03T01:25:07.545Z,3.40
2022-12-03T01:27:34.449Z,3.40
2022-12-03T01:30:01.303Z,3.40
2022-12-03T01:32:28.191Z,3.40
2022-12-03T01:34:56.478Z,3.40
2022-12-03T01:37:25.853Z,3.40
2022-12-03T01:39:53.391Z,3.50
2022-12-03T01:42:26.455Z,3.50
2022-12-03T01:44:56.903Z,3.40
2022-12-03T01:47:38.002Z,3.60
2022-12-03T01:50:26.688Z,3.40
2022-12-03T01:52:58.328Z,3.50
2022-12-03T01:55:26.631Z,3.50
2022-12-03T01:57:57.639Z,3.50
2022-12-03T02:00:27.138Z,3.50
2022-12-03T02:03:00.670Z,3.50
2022-12-03T02:05:33.011Z,3.50
2022-12-03T02:08:00.480Z,3.50
2022-12-03T02:10:37.723Z,3.50
2022-12-03T02:13:08.881Z,3.50
2022-12-03T02:15:38.522Z,3.50
2022-12-03T02:18:05.557Z,3.50
2022-12-03T02:20:42.555Z,3.50
2022-12-03T02:23:13.271Z,3.40
2022-12-03T02:25:40.294Z,3.40
2022-12-03T02:28:09.078Z,3.40
2022-12-03T02:30:36.532Z,3.30
2022-12-03T02:33:03.962Z,3.30
2022-12-03T02:35:33.698Z,3.30
2022-12-03T02:38:10.566Z,3.40
2022-12-03T02:40:37.787Z,3.40
2022-12-03T02:43:05.815Z,3.30
2022-12-03T02:45:40.724Z,3.40
2022-12-03T02:48:17.950Z,3.40
2022-12-03T02:50:50.255Z,3.30
2022-12-03T02:53:25.986Z,3.30
2022-12-03T02:55:54.597Z,3.30
2022-12-03T02:58:23.347Z,3.30
2022-12-03T03:00:51.771Z,3.30
2022-12-03T03:03:20.383Z,3.40
2022-12-03T03:05:48.906Z,3.40
2022-12-03T03:08:17.009Z,3.40
2022-12-03T03:10:44.751Z,3.40
2022-12-03T03:13:13.964Z,3.50
2022-12-03T03:15:42.446Z,3.40
2022-12-03T03:18:10.864Z,3.40
2022-12-03T03:20:38.488Z,3.40
2022-12-03T03:23:14.421Z,3.40
2022-12-03T03:25:45.105Z,3.50
2022-12-03T03:28:13.089Z,3.50
2022-12-03T03:30:42.425Z,3.60
2022-12-03T03:33:10.557Z,3.70
2022-12-03T03:35:38.330Z,3.60
2022-12-03T03:38:07.774Z,3.60
2022-12-03T03:40:34.871Z,3.50
2022-12-03T03:43:01.963Z,3.60
2022-12-03T03:45:29.728Z,3.60
2022-12-03T03:47:58.033Z,3.60
2022-12-03T03:50:25.857Z,3.50
2022-12-03T03:52:53.104Z,3.50
2022-12-03T03:55:20.544Z,3.60
2022-12-03T03:57:48.891Z,3.60
2022-12-03T04:00:16.921Z,3.60
2022-12-03T04:02:44.624Z,3.60
2022-12-03T04:05:20.026Z,3.60
2022-12-03T04:07:46.958Z,3.60
2022-12-03T04:10:38.044Z,3.60
2022-12-03T04:13:05.609Z,3.50
2022-12-03T04:15:32.603Z,3.50
2022-12-03T04:18:18.149Z,3.50
2022-12-03T04:20:44.978Z,3.50
2022-12-03T04:23:11.819Z,3.50
2022-12-03T04:25:56.948Z,3.50
2022-12-03T04:28:42.067Z,3.60
2022-12-03T04:31:27.621Z,3.60
2022-12-03T04:34:13.159Z,3.60
2022-12-03T04:36:40.076Z,3.60
2022-12-03T04:39:06.957Z,3.50
2022-12-03T04:41:33.763Z,3.50
2022-12-03T04:44:19.085Z,3.40
2022-12-03T04:46:45.894Z,3.40
2022-12-03T04:49:12.726Z,3.40
2022-12-03T04:51:39.649Z,3.40
2022-12-03T04:54:06.548Z,3.40
2022-12-03T04:56:33.434Z,3.50
2022-12-03T04:59:00.337Z,3.60
2022-12-03T05:01:27.203Z,3.50
2022-12-03T05:03:54.049Z,3.50
2022-12-03T05:06:20.875Z,3.40
2022-12-03T05:08:47.716Z,3.40
2022-12-03T05:11:14.742Z,3.40
2022-12-03T05:13:43.110Z,3.50
2022-12-03T05:16:10.198Z,3.50
2022-12-03T05:18:37.182Z,3.60
2022-12-03T05:21:04.142Z,3.40
2022-12-03T05:23:30.987Z,3.50
2022-12-03T05:25:57.881Z,3.40
2022-12-03T05:28:24.817Z,3.50
2022-12-03T05:30:52.422Z,3.70
2022-12-03T05:33:19.344Z,3.60
2022-12-03T05:35:46.547Z,3.60
2022-12-03T05:38:13.591Z,3.60
2022-12-03T05:40:40.847Z,3.50
2022-12-03T05:43:07.697Z,3.60
2022-12-03T05:45:39.311Z,3.70
2022-12-03T05:48:08.647Z,3.70
2022-12-03T05:50:36.981Z,3.60
2022-12-03T05:53:04.559Z,3.60
2022-12-03T05:55:31.493Z,3.50
2022-12-03T05:57:58.380Z,3.50
2022-12-03T06:00:28.312Z,3.50
2022-12-03T06:02:55.757Z,3.50
2022-12-03T06:05:23.865Z,3.50
2022-12-03T06:07:52.230Z,3.60
2022-12-03T06:10:24.191Z,3.50
2022-12-03T06:12:51.106Z,3.50
2022-12-03T06:15:19.152Z,3.50
2022-12-03T06:17:46.513Z,3.50
2022-12-03T06:20:16.619Z,3.60
2022-12-03T06:22:43.483Z,3.60
2022-12-03T06:25:11.058Z,3.50
2022-12-03T06:27:38.221Z,3.50
2022-12-03T06:30:06.781Z,3.50
2022-12-03T06:32:33.597Z,3.60
2022-12-03T06:35:00.419Z,3.60
2022-12-03T06:37:27.203Z,3.60
2022-12-03T06:39:54.037Z,3.60
2022-12-03T06:42:20.844Z,3.60
2022-12-03T06:44:47.688Z,3.70
2022-12-03T06:47:14.520Z,3.60
2022-12-03T06:49:41.411Z,3.60
2022-12-03T06:52:08.222Z,3.70
2022-12-03T06:54:35.025Z,3.60
2022-12-03T06:57:02.004Z,3.70
2022-12-03T06:59:28.905Z,3.80
2022-12-03T07:01:55.859Z,3.80
2022-12-03T07:04:22.727Z,3.90
2022-12-03T07:06:49.536Z,3.90
2022-12-03T07:09:17.268Z,3.80
2022-12-03T07:11:44.188Z,3.80
2022-12-03T07:14:11.546Z,3.80
2022-12-03T07:16:39.354Z,3.80
2022-12-03T07:19:07.152Z,3.90
2022-12-03T07:21:34.637Z,3.80
2022-12-03T07:24:01.658Z,3.80
2022-12-03T07:26:28.523Z,3.70
2022-12-03T07:28:55.473Z,3.70
2022-12-03T07:31:22.407Z,3.80
2022-12-03T07:33:49.260Z,3.80
2022-12-03T07:36:16.145Z,3.90
2022-12-03T07:38:42.981Z,3.90
2022-12-03T07:41:09.977Z,3.90
2022-12-03T07:43:36.776Z,4.00
2022-12-03T07:46:03.617Z,4.10
2022-12-03T07:48:30.426Z,4.10
2022-12-03T07:50:57.254Z,4.10
2022-12-03T07:53:24.111Z,4.00
2022-12-03T07:55:51.009Z,4.00
2022-12-03T07:58:17.848Z,4.00
2022-12-03T08:00:44.728Z,4.00
2022-12-03T08:03:11.542Z,4.00
2022-12-03T08:05:38.348Z,4.00
2022-12-03T08:08:05.465Z,4.00
2022-12-03T08:10:32.590Z,4.10
2022-12-03T08:13:00.138Z,4.30
2022-12-03T08:15:33.842Z,4.40
2022-12-03T08:18:14.005Z,4.60
2022-12-03T08:20:42.942Z,4.60
2022-12-03T08:23:18.612Z,4.60
2022-12-03T08:25:46.696Z,4.80
2022-12-03T08:28:22.468Z,5.00
2022-12-03T08:31:26.816Z,5.20
2022-12-03T08:34:13.425Z,5.50
2022-12-03T08:36:40.286Z,5.80
2022-12-03T08:39:35.816Z,5.70
2022-12-03T08:42:43.841Z,5.70
2022-12-03T08:45:29.230Z,5.90
2022-12-03T08:48:01.967Z,6.00
2022-12-03T08:50:46.958Z,6.20
2022-12-03T08:53:13.736Z,6.50
2022-12-03T08:55:48.262Z,6.60
2022-12-03T08:58:23.263Z,6.70
2022-12-03T09:01:16.039Z,7.00
2022-12-03T09:03:54.802Z,7.00
2022-12-03T09:06:22.704Z,6.80
2022-12-03T09:08:49.572Z,6.80
2022-12-03T09:11:16.472Z,6.90
2022-12-03T09:13:43.321Z,6.90
2022-12-03T09:16:10.226Z,6.70
2022-12-03T09:18:37.132Z,6.50
2022-12-03T09:21:04.053Z,6.50
2022-12-03T09:23:30.843Z,6.60
2022-12-03T09:25:57.685Z,6.70
2022-12-03T09:28:24.543Z,7.00
2022-12-03T09:31:06.479Z,7.10
2022-12-03T09:33:33.686Z,7.20
2022-12-03T09:36:00.542Z,7.20
2022-12-03T09:38:27.389Z,7.20
2022-12-03T09:40:54.484Z,7.20
2022-12-03T09:43:21.474Z,7.40
2022-12-03T09:45:49.787Z,7.30
2022-12-03T09:48:19.436Z,7.20
2022-12-03T09:50:46.788Z,7.10
2022-12-03T09:53:17.587Z,7.00
2022-12-03T09:55:45.509Z,7.10
2022-12-03T09:58:14.977Z,7.20
2022-12-03T10:00:45.721Z,7.30
2022-12-03T10:03:15.567Z,7.40
2022-12-03T10:05:46.677Z,7.40
2022-12-03T10:08:20.979Z,7.40
2022-12-03T10:10:51.778Z,7.50
2022-12-03T10:13:30.852Z,7.70
2022-12-03T10:16:00.146Z,8.00
2022-12-03T10:18:31.111Z,8.20
2022-12-03T10:20:59.293Z,8.40
2022-12-03T10:23:31.033Z,8.50
2022-12-03T10:25:59.485Z,8.20
2022-12-03T10:28:41.378Z,8.00
2022-12-03T10:31:11.019Z,8.00
2022-12-03T10:33:41.841Z,8.10
2022-12-03T10:36:16.156Z,8.10
2022-12-03T10:38:43.364Z,7.90
2022-12-03T10:41:25.410Z,7.90
2022-12-03T10:43:52.449Z,8.00
2022-12-03T10:46:21.936Z,8.10
2022-12-03T10:49:09.137Z,7.90
2022-12-03T10:51:37.468Z,7.70
2022-12-03T10:54:05.902Z,7.60
2022-12-03T10:56:32.730Z,7.70
2022-12-03T10:58:59.593Z,7.70
2022-12-03T11:01:26.962Z,7.80
2022-12-03T11:04:00.762Z,7.80
2022-12-03T11:06:30.797Z,7.90
2022-12-03T11:09:01.404Z,8.00
2022-12-03T11:11:31.478Z,8.00
2022-12-03T11:14:00.586Z,8.00
2022-12-03T11:16:39.797Z,8.00
2022-12-03T11:19:12.784Z,7.90
2022-12-03T11:22:09.901Z,8.00
2022-12-03T11:24:38.469Z,8.00
2022-12-03T11:27:06.946Z,8.00
2022-12-03T11:29:47.557Z,8.00
2022-12-03T11:32:39.684Z,8.00
2022-12-03T11:35:26.592Z,8.00
2022-12-03T11:37:53.500Z,8.00
2022-12-03T11:40:20.296Z,7.90
2022-12-03T11:42:48.995Z,7.90
2022-12-03T11:45:36.885Z,7.90
2022-12-03T11:48:11.712Z,7.90
2022-12-03T11:50:45.162Z,7.80
2022-12-03T11:53:22.649Z,7.80
2022-12-03T11:56:18.487Z,7.70
2022-12-03T11:58:47.315Z,7.80
2022-12-03T12:01:16.105Z,7.70
2022-12-03T12:03:48.720Z,7.50
2022-12-03T12:06:16.895Z,7.50
2022-12-03T12:08:49.776Z,7.30
2022-12-03T12:11:39.905Z,7.30
2022-12-03T12:14:13.858Z,7.30
2022-12-03T12:16:52.558Z,7.30
2022-12-03T12:19:29.549Z,7.40
2022-12-03T12:22:12.552Z,7.40
2022-12-03T12:24:40.689Z,7.50
2022-12-03T12:27:12.012Z,7.40
2022-12-03T12:29:40.824Z,7.40
2022-12-03T12:32:13.680Z,7.30
2022-12-03T12:34:45.625Z,7.40
2022-12-03T12:37:19.546Z,7.40
2022-12-03T12:39:46.626Z,7.40
2022-12-03T12:42:37.217Z,7.30
2022-12-03T12:45:22.633Z,7.30
2022-12-03T12:48:01.419Z,7.20
2022-12-03T12:50:28.297Z,7.20
2022-12-03T12:53:01.338Z,7.20
2022-12-03T12:55:28.291Z,7.20
2022-12-03T12:57:59.698Z,7.20
2022-12-03T13:00:26.622Z,7.20
2022-12-03T13:03:00.396Z,7.20
2022-12-03T13:05:33.116Z,7.20
2022-12-03T13:08:00.056Z,7.20
2022-12-03T13:10:42.056Z,7.20
2022-12-03T13:13:23.317Z,7.20
2022-12-03T13:16:00.166Z,7.20
2022-12-03T13:18:38.677Z,7.10
2022-12-03T13:21:25.437Z,7.10
2022-12-03T13:23:55.379Z,7.10
2022-12-03T13:26:40.345Z,7.00
2022-12-03T13:29:15.885Z,7.00
2022-12-03T13:31:52.129Z,7.00
2022-12-03T13:34:24.531Z,7.00
2022-12-03T13:36:57.556Z,7.00
2022-12-03T13:39:32.630Z,7.00
2022-12-03T13:42:39.155Z,7.00
2022-12-03T13:45:15.082Z,7.00
2022-12-03T13:47:44.509Z,7.00
2022-12-03T13:50:21.622Z,6.90
2022-12-03T13:52:48.560Z,7.00
2022-12-03T13:55:25.575Z,7.00
2022-12-03T13:57:52.847Z,7.00
2022-12-03T14:00:20.059Z,6.90
2022-12-03T14:02:46.968Z,7.00
2022-12-03T14:05:14.000Z,7.00
2022-12-03T14:07:40.923Z,7.00
2022-12-03T14:10:11.146Z,7.00
2022-12-03T14:12:37.945Z,6.90
2022-12-03T14:15:06.505Z,7.00
2022-12-03T14:17:33.305Z,6.90
2022-12-03T14:20:01.484Z,6.90
2022-12-03T14:22:29.293Z,7.00
2022-12-03T14:24:56.710Z,6.90
2022-12-03T14:27:24.943Z,6.90
2022-12-03T14:29:52.622Z,6.90
2022-12-03T14:32:19.773Z,6.90
2022-12-03T14:34:46.585Z,6.80
2022-12-03T14:37:13.446Z,6.80
2022-12-03T14:39:40.253Z,6.80
2022-12-03T14:42:13.164Z,6.70
2022-12-03T14:44:41.078Z,6.70
2022-12-03T14:47:07.933Z,6.70
2022-12-03T14:49:35.086Z,6.70
2022-12-03T14:52:02.232Z,6.60
2022-12-03T14:54:29.191Z,6.60
2022-12-03T14:56:56.336Z,6.60
2022-12-03T14:59:27.648Z,6.60
2022-12-03T15:01:55.379Z,6.60
2022-12-03T15:04:22.584Z,6.60
2022-12-03T15:06:49.553Z,6.60
2022-12-03T15:09:16.375Z,6.60
2022-12-03T15:11:46.308Z,6.50
2022-12-03T15:14:13.743Z,6.50
2022-12-03T15:16:40.621Z,6.50
2022-12-03T15:19:07.570Z,6.50
2022-12-03T15:21:35.055Z,6.50
2022-12-03T15:24:02.825Z,6.50
2022-12-03T15:26:30.528Z,6.50
2022-12-03T15:28:57.403Z,6.40
2022-12-03T15:31:24.284Z,6.40
2022-12-03T15:33:51.145Z,6.40
2022-12-03T15:36:18.058Z,6.40
2022-12-03T15:38:44.988Z,6.30
2022-12-03T15:41:21.429Z,6.30
2022-12-03T15:43:48.851Z,6.30
2022-12-03T15:46:16.049Z,6.20
2022-12-03T15:48:43.266Z,6.20
2022-12-03T15:51:10.514Z,6.20
2022-12-03T15:53:37.746Z,6.10
2022-12-03T15:56:04.983Z,6.10
2022-12-03T15:58:31.898Z,6.10
2022-12-03T16:00:58.876Z,6.10
2022-12-03T16:03:26.301Z,6.10
2022-12-03T16:05:53.284Z,6.00
2022-12-03T16:08:20.156Z,6.00
2022-12-03T16:10:47.193Z,6.00
2022-12-03T16:13:14.028Z,5.90
2022-12-03T16:15:41.389Z,5.90
2022-12-03T16:18:08.302Z,5.90
2022-12-03T16:20:35.363Z,5.90
2022-12-03T16:23:02.622Z,5.90
2022-12-03T16:25:29.825Z,5.90
2022-12-03T16:27:56.825Z,5.90
2022-12-03T16:30:25.102Z,5.90
2022-12-03T16:32:52.107Z,5.90
2022-12-03T16:35:18.981Z,5.90
2022-12-03T16:37:45.860Z,5.90
2022-12-03T16:40:12.834Z,5.90
2022-12-03T16:42:39.769Z,5.90
2022-12-03T16:45:10.563Z,5.90
2022-12-03T16:47:37.461Z,5.90
2022-12-03T16:50:08.126Z,5.90
2022-12-03T16:52:35.740Z,5.90
2022-12-03T16:55:02.615Z,5.80
2022-12-03T16:57:33.737Z,5.80
2022-12-03T17:00:01.229Z,5.80
2022-12-03T17:02:28.588Z,5.80
2022-12-03T17:04:56.430Z,5.80
2022-12-03T17:07:23.339Z,5.80
2022-12-03T17:09:50.365Z,5.80
2022-12-03T17:12:17.237Z,5.70
2022-12-03T17:14:44.401Z,5.70
2022-12-03T17:17:11.297Z,5.70
2022-12-03T17:19:38.412Z,5.80
2022-12-03T17:22:05.278Z,5.70
2022-12-03T17:24:32.148Z,5.70
2022-12-03T17:26:58.952Z,5.60
2022-12-03T17:29:25.792Z,5.60
2022-12-03T17:31:52.703Z,5.60
2022-12-03T17:34:19.600Z,5.50
2022-12-03T17:36:46.463Z,5.50
2022-12-03T17:39:13.706Z,5.40
2022-12-03T17:41:40.975Z,5.40
2022-12-03T17:44:11.291Z,5.30
2022-12-03T17:46:40.524Z,5.30
2022-12-03T17:49:07.833Z,5.30
2022-12-03T17:51:35.568Z,5.30
2022-12-03T17:54:02.831Z,5.30
2022-12-03T17:56:30.032Z,5.30
2022-12-03T17:58:57.584Z,5.30
2022-12-03T18:01:24.479Z,5.30
2022-12-03T18:03:51.899Z,5.30
2022-12-03T18:06:18.803Z,5.30
2022-12-03T18:08:46.750Z,5.20
2022-12-03T18:11:13.666Z,5.30
2022-12-03T18:13:40.473Z,5.30
2022-12-03T18:16:07.593Z,5.30
2022-12-03T18:18:35.144Z,5.30
2022-12-03T18:21:04.244Z,5.30
2022-12-03T18:23:32.116Z,5.20
2022-12-03T18:25:59.328Z,5.20
2022-12-03T18:28:27.649Z,5.20
2022-12-03T18:30:54.663Z,5.20
2022-12-03T18:33:23.348Z,5.20
2022-12-03T18:35:54.303Z,5.20
2022-12-03T18:38:22.632Z,5.20
2022-12-03T18:40:53.544Z,5.20
2022-12-03T18:43:20.624Z,5.20
2022-12-03T18:45:47.666Z,5.20
2022-12-03T18:48:17.409Z,5.10
2022-12-03T18:50:45.004Z,5.20
2022-12-03T18:53:14.542Z,5.10
2022-12-03T18:55:42.380Z,5.10
2022-12-03T18:58:09.637Z,5.10
2022-12-03T19:00:37.218Z,5.10
2022-12-03T19:03:05.593Z,5.10
2022-12-03T19:05:34.056Z,5.20
2022-12-03T19:08:02.060Z,5.20
2022-12-03T19:10:29.487Z,5.10
2022-12-03T19:12:56.997Z,5.10
2022-12-03T19:15:24.566Z,5.00
2022-12-03T19:17:51.764Z,5.00
2022-12-03T19:20:19.037Z,5.00
2022-12-03T19:22:46.741Z,4.90
2022-12-03T19:25:14.555Z,4.90
2022-12-03T19:27:42.012Z,4.90
2022-12-03T19:30:10.698Z,4.90
2022-12-03T19:32:38.496Z,4.90
2022-12-03T19:35:08.025Z,4.90
2022-12-03T19:37:35.268Z,4.90
2022-12-03T19:40:02.626Z,4.90
2022-12-03T19:42:31.597Z,4.90
2022-12-03T19:44:58.957Z,5.00
2022-12-03T19:47:26.283Z,4.80
2022-12-03T19:49:54.278Z,4.80
2022-12-03T19:52:21.882Z,4.80
2022-12-03T19:54:49.901Z,4.80
2022-12-03T19:57:23.037Z,4.80
2022-12-03T19:59:55.028Z,4.80
2022-12-03T20:02:22.862Z,4.80
2022-12-03T20:04:50.069Z,4.80
2022-12-03T20:07:17.289Z,4.80
2022-12-03T20:09:44.580Z,4.90
2022-12-03T20:12:11.894Z,4.90
2022-12-03T20:14:39.209Z,4.90
2022-12-03T20:17:06.385Z,4.90
2022-12-03T20:19:33.789Z,5.00
2022-12-03T20:22:02.869Z,5.00
2022-12-03T20:24:30.350Z,5.00
2022-12-03T20:26:57.679Z,5.00
2022-12-03T20:29:25.453Z,5.00
2022-12-03T20:31:54.837Z,5.10
2022-12-03T20:34:22.082Z,5.10
2022-12-03T20:36:49.438Z,5.10
2022-12-03T20:39:16.700Z,5.10
2022-12-03T20:41:44.146Z,5.10
2022-12-03T20:44:11.553Z,4.90
2022-12-03T20:46:38.601Z,4.90
2022-12-03T20:49:05.902Z,4.90
2022-12-03T20:51:33.493Z,4.90
2022-12-03T20:54:01.772Z,4.80
2022-12-03T20:56:32.678Z,4.80
2022-12-03T20:59:02.150Z,4.70
2022-12-03T21:01:29.535Z,4.70
2022-12-03T21:03:58.221Z,4.70
2022-12-03T21:06:28.213Z,4.70
2022-12-03T21:08:56.977Z,4.60
2022-12-03T21:11:26.732Z,4.60
2022-12-03T21:13:54.580Z,4.60
2022-12-03T21:16:46.050Z,4.60
2022-12-03T21:19:13.445Z,4.60
2022-12-03T21:21:42.188Z,4.70
2022-12-03T21:24:10.727Z,4.70
2022-12-03T21:26:37.634Z,4.70
2022-12-03T21:29:04.859Z,4.80
2022-12-03T21:31:32.524Z,4.90
2022-12-03T21:33:59.530Z,4.90
2022-12-03T21:36:26.773Z,4.90
2022-12-03T21:38:54.049Z,4.90
2022-12-03T21:41:21.444Z,4.90
2022-12-03T21:43:48.327Z,4.90
2022-12-03T21:47:10.098Z,5.00
2022-12-03T21:49:04.681Z,5.00
2022-12-03T21:51:31.768Z,5.10
2022-12-03T21:53:59.002Z,5.10
2022-12-03T21:56:25.989Z,5.10
2022-12-03T21:58:52.820Z,5.10
2022-12-03T22:01:23.918Z,5.10
2022-12-03T22:03:51.386Z,5.20
2022-12-03T22:06:19.106Z,5.20
2022-12-03T22:08:46.029Z,5.20
2022-12-03T22:11:19.604Z,5.20
2022-12-03T22:13:47.117Z,5.20
2022-12-03T22:16:16.598Z,5.20
2022-12-03T22:18:44.005Z,5.30
2022-12-03T22:21:14.120Z,5.30
2022-12-03T22:23:41.478Z,5.30
2022-12-03T22:26:12.131Z,5.30
2022-12-03T22:28:42.526Z,5.30
2022-12-03T22:31:10.519Z,5.30
2022-12-03T22:33:38.510Z,5.30
2022-12-03T22:36:18.321Z,5.30
2022-12-03T22:38:47.271Z,5.20
2022-12-03T22:41:14.990Z,5.20
2022-12-03T22:43:42.276Z,5.20
2022-12-03T22:46:13.499Z,5.20
2022-12-03T22:48:42.173Z,5.20
2022-12-03T22:51:17.614Z,5.10
2022-12-03T22:53:44.597Z,5.20
2022-12-03T22:56:11.646Z,5.20
2022-12-03T22:58:39.360Z,5.20
2022-12-03T23:01:07.416Z,5.20
2022-12-03T23:03:34.315Z,5.20
2022-12-03T23:06:01.218Z,5.30
2022-12-03T23:08:28.020Z,5.20
2022-12-03T23:10:54.900Z,5.20
2022-12-03T23:13:21.737Z,5.20
2022-12-03T23:15:52.319Z,5.10
2022-12-03T23:18:20.204Z,5.10
2022-12-03T23:20:52.952Z,5.10
2022-12-03T23:23:21.499Z,5.10
2022-12-03T23:26:06.958Z,5.10
2022-12-03T23:28:36.577Z,5.10
2022-12-03T23:31:04.659Z,5.10
2022-12-03T23:33:37.960Z,5.10
2022-12-03T23:36:06.691Z,5.00
2022-12-03T23:38:33.672Z,5.00
2022-12-03T23:41:08.689Z,5.00
2022-12-03T23:43:35.791Z,5.00
2022-12-03T23:46:11.600Z,5.00
2022-12-03T23:48:39.529Z,5.00
2022-12-03T23:51:08.629Z,5.00
2022-12-03T23:53:36.743Z,5.00
2022-12-03T23:56:08.635Z,5.00
2022-12-03T23:58:35.849Z,4.90
